Hazel Green, Wisconsin
Current Conditions -  °F | °C
As of 10:15 PM on Sunday 21 Dec 2014 (Local Time) from KPVB Reporting Station
Broken Clouds Broken Clouds  
Wind Chill: 24°   Ceiling: 1800
Heat Index: 34°   Visibility: 7mi
Dew Point: 32°   Wind: 16mph
Humidity: 91%   Direction: 140°SE
Pressure: 29.91"   Gusts: 21mph
Location:  42.53°N, 90.43°W
Report Text: KPVB 220415Z AUTO 14014G18KT 7SM SCT010 BKN018 BKN038 01/00 A2991 RMK AO1 T00130000
Loading
Personal Weather Stations






























Interactive Weather Map New forecast layout! Learn more

10-Day Weather Forecast

Advertisements
Track Severe Weather on mobile